Terminal Aerodrome Forecast
Issued by NWS Paducah, KY

Home | Current Version | Previous Version | Graphics & Text | Print | Product List | Glossary On
Versions: 1 2 3 4 5 6 7 8 9 10 11 12 13 14 15 16 17 18 19 20 21 22
647
FTUS43 KPAH 300334 AAA
TAFEVV
TAF AMD
KEVV 300334Z 3004/3024 32012G20KT 4SM TSRA BKN080CB
     FM300500 VRB06KT P6SM VCTS BKN050CB
     FM300800 15011G20KT P6SM SCT035 BKN150
     FM301500 18015G23KT 6SM -SHRA VCTS BKN015CB OVC060=

USA.gov is the U.S. government's official web portal to all federal, state and local government web resources and services.